Time;durP1;ratioP1;P1;durP2;ratioP2;P2;SDS_P1;SDS_P2;PMS_P1;PMS_P2;Temp;Humidity;BMP_temperature;BMP_pressure;BME280_temperature;BME280_humidity;BME280_pressure;Samples;Min_cycle;Max_cycle;Signal;HPM_P1;HPM_P2
2022/09/06 00:00:27;;;;;;;2.35;1.95;;;20.10;99.90;;;;;;4961662;28;20035;-59
2022/09/06 00:02:52;;;;;;;5.38;1.80;;;20.10;99.90;;;;;;4937343;28;20401;-57
2022/09/06 00:05:18;;;;;;;3.40;1.65;;;20.10;99.90;;;;;;5026749;28;20060;-61
2022/09/06 00:07:44;;;;;;;3.75;1.80;;;20.10;99.90;;;;;;5022057;28;20033;-61
2022/09/06 00:10:10;;;;;;;7.57;2.00;;;20.10;99.90;;;;;;5028042;28;20091;-55
2022/09/06 00:12:36;;;;;;;9.65;2.05;;;20.10;99.90;;;;;;5009107;28;20792;-57
2022/09/06 00:15:03;;;;;;;13.18;2.40;;;19.80;99.90;;;;;;5024817;28;20065;-59
2022/09/06 00:17:29;;;;;;;17.27;2.88;;;19.30;99.90;;;;;;5028012;28;20171;-58
2022/09/06 00:19:55;;;;;;;6.90;2.60;;;19.10;99.90;;;;;;5027069;28;20053;-62
2022/09/06 00:22:20;;;;;;;7.57;2.88;;;18.80;99.90;;;;;;5020516;28;20025;-58
2022/09/06 00:24:46;;;;;;;15.48;3.83;;;18.50;99.90;;;;;;5025287;28;20537;-58
2022/09/06 00:27:11;;;;;;;5.22;3.22;;;18.50;99.90;;;;;;5021886;28;20077;-61
2022/09/06 00:29:37;;;;;;;11.75;4.20;;;18.60;99.90;;;;;;5021842;28;20022;-57
2022/09/06 00:32:03;;;;;;;9.27;3.60;;;18.70;99.90;;;;;;5025374;28;20026;-59
2022/09/06 00:34:28;;;;;;;11.82;3.78;;;18.80;99.90;;;;;;5027260;28;20029;-60
2022/09/06 00:36:54;;;;;;;8.60;3.45;;;18.90;99.90;;;;;;5022161;28;20121;-59
2022/09/06 00:39:19;;;;;;;10.48;5.75;;;18.80;99.90;;;;;;5028413;28;20029;-56
2022/09/06 00:41:45;;;;;;;11.77;3.92;;;18.80;99.90;;;;;;5030318;28;20029;-58
2022/09/06 00:44:10;;;;;;;5.88;4.18;;;18.80;99.90;;;;;;5025308;28;20038;-58
2022/09/06 00:46:38;;;;;;;10.95;3.90;;;18.80;99.90;;;;;;5024617;28;20032;-58
2022/09/06 00:49:09;;;;;;;7.57;4.18;;;18.70;99.90;;;;;;5010476;28;20029;-59
2022/09/06 00:51:35;;;;;;;11.00;4.25;;;18.60;99.90;;;;;;5027626;28;20551;-61
2022/09/06 00:54:06;;;;;;;18.98;4.78;;;18.60;99.90;;;;;;5028331;28;20037;-63
2022/09/06 00:56:42;;;;;;;10.20;4.95;;;18.50;99.90;;;;;;5025290;28;20026;-59
2022/09/06 00:59:08;;;;;;;8.52;5.03;;;18.50;99.90;;;;;;5025130;28;22082;-59
2022/09/06 01:01:34;;;;;;;8.57;4.88;;;18.40;99.90;;;;;;5029970;28;20044;-58
2022/09/06 01:04:01;;;;;;;9.55;6.05;;;18.40;99.90;;;;;;5028866;28;20053;-59
2022/09/06 01:06:43;;;;;;;14.40;5.10;;;18.40;99.90;;;;;;5032981;28;20042;-63
2022/09/06 01:09:40;;;;;;;9.23;4.45;;;18.40;99.90;;;;;;5032644;28;20024;-61
2022/09/06 01:12:15;;;;;;;8.57;5.15;;;18.40;99.90;;;;;;5034709;28;20022;-56
2022/09/06 01:15:15;;;;;;;14.50;5.35;;;18.40;99.90;;;;;;5031380;28;20033;-60
2022/09/06 01:17:59;;;;;;;10.13;4.85;;;18.40;99.90;;;;;;5032267;28;20029;-60
2022/09/06 01:20:40;;;;;;;8.53;5.23;;;18.40;99.90;;;;;;5030955;28;20030;-63
2022/09/06 01:23:06;;;;;;;7.85;5.20;;;18.40;99.90;;;;;;5032092;28;20345;-62
2022/09/06 01:25:58;;;;;;;17.55;5.22;;;18.40;99.90;;;;;;5030951;28;20109;-63
2022/09/06 01:28:54;;;;;;;9.30;5.07;;;18.40;99.90;;;;;;5029735;28;20050;-62
2022/09/06 01:31:51;;;;;;;10.57;5.05;;;18.40;99.90;;;;;;5029636;28;20021;-62
2022/09/06 01:34:38;;;;;;;9.15;4.95;;;18.40;99.90;;;;;;5026133;28;20133;-61
2022/09/06 01:37:11;;;;;;;9.23;5.15;;;18.30;99.90;;;;;;5031967;28;20043;-61
2022/09/06 01:39:38;;;;;;;12.30;6.00;;;18.30;99.90;;;;;;5028237;28;20032;-61
2022/09/06 01:42:14;;;;;;;8.98;5.78;;;18.30;99.90;;;;;;5032784;28;20129;-59
2022/09/06 01:44:44;;;;;;;14.15;6.82;;;18.30;99.90;;;;;;5032884;28;20045;-57
2022/09/06 01:47:30;;;;;;;15.43;6.03;;;18.30;99.90;;;;;;5032469;28;20034;-58
2022/09/06 01:50:05;;;;;;;17.65;6.28;;;18.30;99.90;;;;;;5029010;28;20055;-60
2022/09/06 01:53:08;;;;;;;9.13;5.40;;;18.30;99.90;;;;;;5029803;28;20037;-59
2022/09/06 01:55:45;;;;;;;14.23;5.50;;;18.30;99.90;;;;;;5023053;28;20029;-62
2022/09/06 01:58:47;;;;;;;11.70;5.57;;;18.30;99.90;;;;;;5032582;28;20036;-63
2022/09/06 02:01:21;;;;;;;10.50;5.55;;;18.30;99.90;;;;;;5029913;28;20018;-60
2022/09/06 02:04:00;;;;;;;10.23;5.95;;;18.40;99.90;;;;;;5030585;28;20128;-60
2022/09/06 02:06:34;;;;;;;12.77;6.07;;;18.30;99.90;;;;;;5024454;28;20030;-60
2022/09/06 02:09:05;;;;;;;13.50;5.82;;;18.40;99.90;;;;;;5033584;28;20048;-62
2022/09/06 02:11:39;;;;;;;17.02;6.30;;;18.40;99.90;;;;;;5013774;28;20041;-57
2022/09/06 02:14:12;;;;;;;12.65;6.18;;;18.30;99.90;;;;;;5033953;28;20037;-61
2022/09/06 02:16:40;;;;;;;9.63;5.70;;;18.20;99.90;;;;;;5033038;28;20151;-62
2022/09/06 02:19:12;;;;;;;15.77;6.40;;;18.20;99.90;;;;;;5030996;28;20037;-60
2022/09/06 02:21:42;;;;;;;10.75;6.18;;;18.20;99.90;;;;;;5031549;28;20546;-60
2022/09/06 02:24:10;;;;;;;14.48;6.32;;;18.20;99.90;;;;;;5031729;28;20091;-54
2022/09/06 02:26:42;;;;;;;11.57;6.22;;;18.10;99.90;;;;;;5033101;28;20080;-58
2022/09/06 02:29:07;;;;;;;8.93;6.30;;;18.10;99.90;;;;;;5029595;28;20025;-58
2022/09/06 02:31:43;;;;;;;19.40;6.68;;;18.00;99.90;;;;;;5028922;28;20488;-60
2022/09/06 02:34:12;;;;;;;13.35;6.35;;;18.00;99.90;;;;;;5029838;28;20399;-60
2022/09/06 02:36:38;;;;;;;15.32;7.10;;;18.00;99.90;;;;;;5032469;28;20037;-60
2022/09/06 02:39:04;;;;;;;15.15;7.10;;;18.00;99.90;;;;;;5036111;28;20025;-62
2022/09/06 02:41:31;;;;;;;22.65;7.93;;;18.00;99.90;;;;;;5028132;28;20423;-59
2022/09/06 02:43:56;;;;;;;14.35;7.25;;;17.90;99.90;;;;;;5027017;28;20056;-57
2022/09/06 02:46:23;;;;;;;15.40;8.30;;;17.90;99.90;;;;;;5030499;28;20092;-59
2022/09/06 02:48:49;;;;;;;17.35;8.27;;;17.90;99.90;;;;;;5030997;28;20507;-62
2022/09/06 02:51:14;;;;;;;12.77;8.85;;;17.70;99.90;;;;;;5033021;28;20064;-60
2022/09/06 02:53:40;;;;;;;16.83;8.63;;;17.80;99.90;;;;;;5028401;28;20033;-60
2022/09/06 02:56:05;;;;;;;16.73;9.10;;;17.80;99.90;;;;;;5026770;28;20029;-62
2022/09/06 02:58:31;;;;;;;13.48;7.97;;;17.70;99.90;;;;;;5032544;28;20087;-62
2022/09/06 03:00:57;;;;;;;16.90;8.65;;;17.80;99.90;;;;;;5027789;28;20060;-62
2022/09/06 03:03:23;;;;;;;17.02;9.00;;;17.80;99.90;;;;;;5030824;28;20025;-62
2022/09/06 03:05:50;;;;;;;12.95;7.55;;;17.70;99.90;;;;;;5030482;28;20021;-59
2022/09/06 03:08:17;;;;;;;19.00;8.68;;;17.80;99.90;;;;;;5029755;28;20053;-56
2022/09/06 03:10:48;;;;;;;13.40;8.63;;;17.80;99.90;;;;;;5031948;28;20030;-59
2022/09/06 03:13:14;;;;;;;14.88;8.60;;;17.70;99.90;;;;;;5029450;28;20025;-62
2022/09/06 03:15:39;;;;;;;22.67;8.52;;;17.70;99.90;;;;;;5027826;28;20475;-61
2022/09/06 03:18:05;;;;;;;15.90;8.52;;;17.70;99.90;;;;;;5028481;28;20549;-60
2022/09/06 03:20:31;;;;;;;12.20;7.55;;;17.70;99.90;;;;;;5034338;28;20058;-56
2022/09/06 03:22:56;;;;;;;15.52;8.75;;;17.70;99.90;;;;;;5030065;28;20029;-59
2022/09/06 03:25:22;;;;;;;17.48;9.90;;;17.70;99.90;;;;;;5027813;28;20075;-61
2022/09/06 03:27:48;;;;;;;16.98;8.65;;;17.70;99.90;;;;;;5027324;28;20140;-58
2022/09/06 03:30:14;;;;;;;18.95;9.45;;;17.60;99.90;;;;;;5026817;28;20032;-59
2022/09/06 03:32:39;;;;;;;14.70;8.65;;;17.60;99.90;;;;;;5031398;28;20034;-56
2022/09/06 03:35:05;;;;;;;14.27;8.30;;;17.60;99.90;;;;;;5028355;28;20764;-61
2022/09/06 03:37:30;;;;;;;19.27;8.90;;;17.70;99.90;;;;;;5026242;28;20017;-60
2022/09/06 03:39:56;;;;;;;15.88;9.02;;;17.60;99.90;;;;;;5029021;28;20396;-60
2022/09/06 03:42:25;;;;;;;14.27;8.15;;;17.60;99.90;;;;;;5030683;28;20039;-58
2022/09/06 03:44:51;;;;;;;15.68;8.07;;;17.60;99.90;;;;;;5032525;28;20445;-62
2022/09/06 03:47:16;;;;;;;15.60;8.60;;;17.60;99.90;;;;;;5029532;28;20017;-60
2022/09/06 03:49:42;;;;;;;14.63;9.02;;;17.50;99.90;;;;;;5032558;28;20236;-59
2022/09/06 03:52:07;;;;;;;13.75;9.05;;;17.40;99.90;;;;;;5028867;28;20032;-58
2022/09/06 03:54:33;;;;;;;17.90;9.20;;;17.30;99.90;;;;;;5030041;28;20057;-55
2022/09/06 03:56:58;;;;;;;14.63;9.00;;;17.30;99.90;;;;;;5027815;28;20034;-57
2022/09/06 03:59:24;;;;;;;24.48;9.70;;;17.30;99.90;;;;;;5030020;28;20036;-57
2022/09/06 04:01:49;;;;;;;16.33;8.77;;;17.20;99.90;;;;;;5027853;28;20511;-54
2022/09/06 04:04:15;;;;;;;16.77;8.85;;;17.20;99.90;;;;;;5032319;28;20033;-65
2022/09/06 04:06:41;;;;;;;17.42;8.38;;;17.10;99.90;;;;;;5036275;28;20107;-60
2022/09/06 04:09:06;;;;;;;18.52;9.57;;;17.10;99.90;;;;;;5026797;28;20160;-60
2022/09/06 04:11:32;;;;;;;15.27;9.38;;;17.00;99.90;;;;;;5029070;28;21046;-58
2022/09/06 04:13:57;;;;;;;17.98;9.52;;;17.00;99.90;;;;;;5028162;28;20044;-62
2022/09/06 04:16:23;;;;;;;15.05;8.52;;;16.90;99.90;;;;;;5030279;28;20044;-56
2022/09/06 04:18:48;;;;;;;12.35;8.73;;;16.90;99.90;;;;;;5025792;28;20017;-59
2022/09/06 04:21:14;;;;;;;15.65;9.75;;;16.90;99.90;;;;;;5028934;28;20112;-61
2022/09/06 04:23:39;;;;;;;19.13;10.30;;;16.80;99.90;;;;;;5027093;28;20025;-62
2022/09/06 04:26:05;;;;;;;16.60;8.52;;;16.70;99.90;;;;;;5025669;28;20101;-60
2022/09/06 04:28:30;;;;;;;19.92;9.55;;;16.70;99.90;;;;;;5026772;28;20033;-61
2022/09/06 04:31:01;;;;;;;14.63;9.02;;;16.70;99.90;;;;;;5030457;28;20029;-58
2022/09/06 04:33:28;;;;;;;18.65;10.75;;;16.70;99.90;;;;;;5026627;28;20084;-59
2022/09/06 04:35:58;;;;;;;19.05;9.98;;;16.60;99.90;;;;;;5026972;28;20110;-59
2022/09/06 04:38:29;;;;;;;18.55;9.38;;;16.60;99.90;;;;;;5027266;28;20033;-61
2022/09/06 04:40:55;;;;;;;20.05;8.65;;;16.60;99.90;;;;;;5027980;28;20021;-61
2022/09/06 04:43:21;;;;;;;14.10;9.02;;;16.60;99.90;;;;;;5028410;28;20079;-59
2022/09/06 04:45:47;;;;;;;15.07;9.02;;;16.60;99.90;;;;;;5036191;28;20040;-61
2022/09/06 04:48:13;;;;;;;17.00;9.65;;;16.60;99.90;;;;;;5033164;28;20028;-61
2022/09/06 04:50:39;;;;;;;17.80;8.35;;;16.60;99.90;;;;;;5033510;28;20104;-61
2022/09/06 04:53:05;;;;;;;12.73;8.52;;;16.60;99.90;;;;;;5035831;28;20030;-60
2022/09/06 04:55:32;;;;;;;21.10;9.70;;;16.70;99.90;;;;;;5033627;28;20022;-61
2022/09/06 04:57:59;;;;;;;15.70;9.38;;;16.70;99.90;;;;;;5032258;28;20095;-61
2022/09/06 05:00:26;;;;;;;15.65;9.23;;;16.60;99.90;;;;;;5029357;28;20502;-59
2022/09/06 05:02:51;;;;;;;20.35;9.07;;;16.60;99.90;;;;;;5037571;28;20090;-59
2022/09/06 05:05:17;;;;;;;15.55;9.05;;;16.60;99.90;;;;;;5031353;28;20047;-59
2022/09/06 05:07:42;;;;;;;18.52;9.13;;;16.50;99.90;;;;;;5030841;28;20029;-61
2022/09/06 05:10:08;;;;;;;16.40;9.40;;;16.50;99.90;;;;;;5034722;28;20033;-60
2022/09/06 05:12:34;;;;;;;16.05;9.90;;;16.50;99.90;;;;;;5029473;28;20034;-62
2022/09/06 05:14:59;;;;;;;18.67;9.32;;;16.50;99.90;;;;;;5030586;28;20108;-61
2022/09/06 05:17:25;;;;;;;15.98;8.65;;;16.50;99.90;;;;;;5029349;28;20025;-60
2022/09/06 05:19:50;;;;;;;13.70;9.45;;;16.40;99.90;;;;;;5026212;28;20045;-61
2022/09/06 05:22:16;;;;;;;18.92;9.18;;;16.40;99.90;;;;;;5029434;28;20030;-58
2022/09/06 05:24:42;;;;;;;22.23;9.90;;;16.40;99.90;;;;;;5028789;28;20022;-60
2022/09/06 05:27:07;;;;;;;18.98;9.27;;;16.40;99.90;;;;;;5023826;28;20075;-59
2022/09/06 05:29:33;;;;;;;16.85;9.20;;;16.40;99.90;;;;;;5023668;28;20100;-59
2022/09/06 05:31:59;;;;;;;16.58;10.48;;;16.40;99.90;;;;;;5028688;28;20061;-57
2022/09/06 05:34:24;;;;;;;18.63;9.80;;;16.40;99.90;;;;;;5031372;28;20041;-61
2022/09/06 05:36:50;;;;;;;15.02;9.18;;;16.50;99.90;;;;;;5027650;28;20488;-61
2022/09/06 05:39:19;;;;;;;19.13;10.52;;;16.50;99.90;;;;;;5035368;28;20044;-61
2022/09/06 05:41:45;;;;;;;22.10;11.07;;;16.50;99.90;;;;;;5027547;28;20829;-59
2022/09/06 05:44:11;;;;;;;15.57;9.73;;;16.50;99.90;;;;;;5036181;28;20017;-62
2022/09/06 05:46:44;;;;;;;29.05;10.10;;;16.60;99.90;;;;;;5032177;28;20025;-60
2022/09/06 05:49:10;;;;;;;12.85;8.52;;;16.60;99.90;;;;;;5034557;28;20056;-61
2022/09/06 05:51:36;;;;;;;16.20;9.60;;;16.70;99.90;;;;;;5032857;28;20021;-58
2022/09/06 05:56:39;;;;;;;18.80;9.95;;;16.80;99.90;;;;;;5028028;28;20519;-59
2022/09/06 05:59:04;;;;;;;15.00;8.82;;;16.80;99.90;;;;;;5035635;28;20096;-58
2022/09/06 06:01:30;;;;;;;16.48;10.02;;;16.90;99.90;;;;;;5029682;28;20021;-57
2022/09/06 06:04:01;;;;;;;23.30;11.02;;;16.90;99.90;;;;;;5010980;28;20029;-59
2022/09/06 06:06:29;;;;;;;22.17;11.25;;;17.00;99.90;;;;;;5021901;28;20114;-58
2022/09/06 06:08:55;;;;;;;19.00;10.25;;;17.00;99.90;;;;;;5012553;28;20171;-58
2022/09/06 06:11:21;;;;;;;16.52;9.95;;;17.10;99.90;;;;;;5026900;28;20115;-59
2022/09/06 06:13:46;;;;;;;19.55;10.02;;;17.10;99.90;;;;;;5028635;28;20169;-59
2022/09/06 06:16:14;;;;;;;15.48;10.65;;;17.20;99.90;;;;;;5019989;28;20109;-59
2022/09/06 06:18:40;;;;;;;17.45;10.38;;;17.20;99.90;;;;;;5026236;28;20052;-58
2022/09/06 06:21:11;;;;;;;25.85;12.65;;;17.30;99.90;;;;;;5027812;28;20487;-58
2022/09/06 06:23:37;;;;;;;27.33;12.50;;;17.30;99.90;;;;;;5026207;28;20026;-59
2022/09/06 06:26:03;;;;;;;22.17;11.95;;;17.40;99.90;;;;;;5028128;28;20030;-60
2022/09/06 06:28:29;;;;;;;22.40;11.90;;;17.40;99.90;;;;;;5028726;28;20037;-59
2022/09/06 06:30:54;;;;;;;17.88;10.40;;;17.50;99.90;;;;;;5027812;28;20032;-59
2022/09/06 06:33:20;;;;;;;17.08;10.68;;;17.50;99.90;;;;;;5025892;28;20030;-59
2022/09/06 06:35:59;;;;;;;17.20;10.48;;;17.60;99.90;;;;;;5024099;28;20034;-55
2022/09/06 06:38:33;;;;;;;23.10;10.77;;;17.60;99.90;;;;;;5030082;28;20029;-57
2022/09/06 06:41:00;;;;;;;21.33;10.65;;;17.60;99.90;;;;;;5028670;28;20029;-58
2022/09/06 06:43:26;;;;;;;17.90;10.10;;;17.70;99.90;;;;;;5030494;28;20038;-58
2022/09/06 06:45:52;;;;;;;14.73;9.30;;;17.70;99.90;;;;;;5030384;28;20027;-58
2022/09/06 06:48:17;;;;;;;13.25;8.93;;;17.70;99.90;;;;;;5030902;28;20108;-56
2022/09/06 06:50:43;;;;;;;16.10;9.38;;;17.80;99.90;;;;;;5031742;28;20025;-54
2022/09/06 06:53:08;;;;;;;13.23;7.95;;;17.80;99.90;;;;;;5029011;28;20637;-55
2022/09/06 06:55:34;;;;;;;9.45;6.50;;;17.80;99.90;;;;;;5030394;28;20037;-57
2022/09/06 06:58:00;;;;;;;12.13;7.32;;;17.90;99.90;;;;;;5028478;28;20060;-58
2022/09/06 07:00:26;;;;;;;15.25;7.38;;;17.90;99.90;;;;;;5030573;28;20026;-59
2022/09/06 07:02:52;;;;;;;14.10;6.30;;;17.90;99.90;;;;;;5030863;28;20399;-58
2022/09/06 07:05:18;;;;;;;12.32;6.65;;;18.00;99.90;;;;;;5029545;28;20028;-58
2022/09/06 07:07:43;;;;;;;8.90;5.43;;;18.00;99.90;;;;;;5030779;28;20594;-58
2022/09/06 07:10:09;;;;;;;12.02;6.30;;;18.10;99.90;;;;;;5024482;28;20021;-55
2022/09/06 07:12:35;;;;;;;8.30;5.60;;;18.20;99.90;;;;;;5026071;28;20041;-56
2022/09/06 07:15:01;;;;;;;13.20;6.40;;;18.20;99.90;;;;;;5030314;28;20025;-56
2022/09/06 07:17:27;;;;;;;7.43;5.00;;;18.30;99.90;;;;;;5026551;28;20018;-57
2022/09/06 07:19:53;;;;;;;7.35;5.32;;;18.30;99.90;;;;;;5023312;28;20079;-59
2022/09/06 07:22:18;;;;;;;8.90;4.38;;;18.40;99.90;;;;;;5026961;28;20050;-55
2022/09/06 07:24:44;;;;;;;9.57;4.35;;;18.40;99.90;;;;;;5028656;28;20435;-55
2022/09/06 07:27:09;;;;;;;6.57;4.20;;;18.50;99.90;;;;;;5027005;28;20052;-58
2022/09/06 07:29:35;;;;;;;7.05;3.80;;;18.60;99.90;;;;;;5029200;28;20030;-58
2022/09/06 07:32:01;;;;;;;10.38;4.70;;;18.60;99.90;;;;;;5021771;28;20368;-56
2022/09/06 07:34:26;;;;;;;15.55;4.40;;;18.70;99.90;;;;;;5014234;28;20389;-57
2022/09/06 07:36:53;;;;;;;5.93;4.10;;;18.80;99.90;;;;;;5013063;28;20041;-58
2022/09/06 07:39:19;;;;;;;4.40;3.67;;;18.90;99.90;;;;;;5012091;28;20017;-57
2022/09/06 07:41:44;;;;;;;8.65;4.13;;;18.90;99.90;;;;;;4996471;28;20034;-59
2022/09/06 07:44:09;;;;;;;11.05;3.95;;;19.10;99.90;;;;;;5020836;28;20084;-57
2022/09/06 07:46:35;;;;;;;8.15;3.80;;;19.20;99.90;;;;;;5011556;28;20133;-58
2022/09/06 07:49:03;;;;;;;8.77;3.72;;;19.40;99.90;;;;;;5026236;28;20029;-56
2022/09/06 07:51:29;;;;;;;10.55;4.55;;;19.50;99.90;;;;;;5002491;28;20021;-56
2022/09/06 07:53:54;;;;;;;5.22;3.70;;;19.60;99.90;;;;;;5024827;28;20030;-57
2022/09/06 07:56:21;;;;;;;8.52;3.53;;;19.70;99.90;;;;;;5014969;28;20087;-58
2022/09/06 07:58:47;;;;;;;11.75;3.88;;;19.70;99.90;;;;;;5014346;28;20068;-57
2022/09/06 08:01:25;;;;;;;7.97;3.15;;;19.90;99.90;;;;;;5014690;28;20025;-57
2022/09/06 08:03:51;;;;;;;6.75;2.78;;;20.00;99.90;;;;;;5013456;28;20085;-57
2022/09/06 08:06:16;;;;;;;8.52;3.30;;;20.00;99.90;;;;;;5016920;28;20029;-57
2022/09/06 08:08:42;;;;;;;3.08;2.50;;;20.10;99.90;;;;;;5014233;28;20527;-58
2022/09/06 08:11:08;;;;;;;7.50;2.40;;;20.20;99.90;;;;;;5010929;28;20029;-56
2022/09/06 08:13:35;;;;;;;3.65;2.45;;;20.20;99.90;;;;;;5011819;28;20053;-56
2022/09/06 08:16:05;;;;;;;9.27;3.40;;;20.30;99.90;;;;;;5020282;28;20022;-54
2022/09/06 08:18:31;;;;;;;4.20;2.80;;;20.50;99.90;;;;;;5014906;28;20106;-58
2022/09/06 08:21:12;;;;;;;4.93;1.95;;;20.60;99.90;;;;;;5016179;28;20030;-59
2022/09/06 08:23:41;;;;;;;2.75;1.95;;;20.60;99.90;;;;;;5022929;28;20078;-55
2022/09/06 08:26:07;;;;;;;6.78;2.22;;;20.80;99.90;;;;;;5017432;28;20014;-55
2022/09/06 08:28:33;;;;;;;4.85;2.10;;;21.00;99.90;;;;;;5018460;28;20544;-57
2022/09/06 08:31:13;;;;;;;7.13;2.40;;;21.20;99.90;;;;;;5028550;28;20025;-55
2022/09/06 08:33:40;;;;;;;7.25;2.28;;;21.20;99.90;;;;;;5021485;28;20113;-55
2022/09/06 08:36:06;;;;;;;15.48;2.50;;;21.30;99.90;;;;;;5015397;28;20030;-55
2022/09/06 08:38:32;;;;;;;10.38;2.15;;;21.40;99.90;;;;;;5019064;28;20092;-57
2022/09/06 08:41:18;;;;;;;2.53;1.85;;;21.50;99.90;;;;;;5011405;28;20474;-57
2022/09/06 08:43:56;;;;;;;9.90;1.95;;;21.70;99.90;;;;;;5026607;28;20018;-58
2022/09/06 08:46:30;;;;;;;5.72;2.20;;;21.90;99.90;;;;;;5015789;28;20038;-58
2022/09/06 08:48:56;;;;;;;3.00;1.63;;;22.00;99.90;;;;;;5020286;28;20026;-57
2022/09/06 08:51:58;;;;;;;6.68;1.95;;;22.10;99.90;;;;;;5020445;28;20915;-58
2022/09/06 08:54:34;;;;;;;6.88;1.27;;;22.20;99.90;;;;;;5024675;28;20025;-58
2022/09/06 08:57:02;;;;;;;5.82;1.42;;;22.30;99.90;;;;;;5017250;28;20061;-56
2022/09/06 08:59:30;;;;;;;1.80;1.00;;;22.40;99.90;;;;;;5022684;28;20025;-57
2022/09/06 09:02:13;;;;;;;4.65;1.35;;;22.50;99.90;;;;;;5020331;28;20029;-59
2022/09/06 09:04:43;;;;;;;3.58;1.60;;;22.70;99.90;;;;;;5016411;28;20034;-58
2022/09/06 09:07:42;;;;;;;2.00;1.17;;;22.80;99.90;;;;;;5016107;28;20048;-58
2022/09/06 09:10:20;;;;;;;3.50;1.63;;;23.00;99.90;;;;;;5020285;28;20033;-58
2022/09/06 09:12:47;;;;;;;1.98;1.05;;;23.30;99.90;;;;;;5013892;28;20028;-58
2022/09/06 09:15:17;;;;;;;3.03;1.10;;;23.40;99.90;;;;;;5015211;28;20660;-58
2022/09/06 09:17:44;;;;;;;1.70;1.02;;;23.50;99.90;;;;;;5025677;28;20579;-58
2022/09/06 09:20:10;;;;;;;4.38;1.20;;;23.60;99.90;;;;;;5011085;28;20136;-58
2022/09/06 09:22:36;;;;;;;1.70;1.15;;;23.70;99.90;;;;;;5023004;28;20110;-57
2022/09/06 09:25:04;;;;;;;3.63;1.05;;;23.90;99.90;;;;;;5018236;28;20514;-58
2022/09/06 09:27:31;;;;;;;1.63;1.30;;;24.10;99.90;;;;;;5028661;28;20021;-58
2022/09/06 09:30:00;;;;;;;3.33;1.10;;;24.20;99.90;;;;;;5023628;28;20109;-58
2022/09/06 09:32:38;;;;;;;4.18;1.17;;;24.40;99.90;;;;;;5025646;28;20048;-58
2022/09/06 09:35:20;;;;;;;2.63;0.98;;;24.50;99.90;;;;;;5016824;28;20431;-55
2022/09/06 09:37:46;;;;;;;3.60;1.05;;;24.70;99.90;;;;;;5016204;28;20026;-58
2022/09/06 09:40:23;;;;;;;4.00;1.10;;;24.80;99.90;;;;;;5014393;28;20443;-55
2022/09/06 09:42:49;;;;;;;4.78;1.05;;;24.80;99.90;;;;;;5024341;28;20510;-56
2022/09/06 09:45:26;;;;;;;2.10;1.00;;;25.10;99.90;;;;;;5017374;28;20109;-58
2022/09/06 09:47:52;;;;;;;4.45;1.05;;;25.30;99.90;;;;;;5028028;28;20546;-58
2022/09/06 09:50:30;;;;;;;2.90;0.88;;;25.50;99.90;;;;;;5026754;28;20105;-58
2022/09/06 09:53:10;;;;;;;2.17;1.20;;;25.80;99.90;;;;;;5016926;28;20029;-57
2022/09/06 09:55:37;;;;;;;3.20;1.10;;;25.80;99.90;;;;;;5019370;28;20034;-56
2022/09/06 09:58:03;;;;;;;4.00;1.05;;;26.10;99.90;;;;;;5025943;28;20640;-57
2022/09/06 10:00:42;;;;;;;4.38;1.35;;;26.30;99.90;;;;;;5020410;28;20079;-58
2022/09/06 10:03:13;;;;;;;1.25;0.88;;;26.40;99.90;;;;;;5019253;28;20083;-59
2022/09/06 10:05:40;;;;;;;5.43;1.00;;;26.60;99.90;;;;;;5019589;28;20025;-59
2022/09/06 10:08:11;;;;;;;2.85;0.88;;;26.60;99.90;;;;;;5018720;28;20567;-57
2022/09/06 10:10:45;;;;;;;5.38;0.93;;;26.90;99.90;;;;;;5013864;28;20033;-59
2022/09/06 10:13:19;;;;;;;1.80;0.70;;;27.10;99.90;;;;;;5019162;28;20038;-59
2022/09/06 10:15:45;;;;;;;;;;;27.20;99.90;;;;;;5014530;28;20033;-60
2022/09/06 10:18:23;;;;;;;7.47;1.20;;;27.50;99.90;;;;;;5019414;28;19923;-59
2022/09/06 10:20:58;;;;;;;1.65;0.88;;;27.70;99.90;;;;;;5019381;28;20061;-59
2022/09/06 10:23:45;;;;;;;5.15;1.20;;;27.80;99.90;;;;;;5028415;28;20029;-60
2022/09/06 10:26:22;;;;;;;7.82;1.10;;;27.90;99.90;;;;;;5019273;28;20100;-59
2022/09/06 10:28:50;;;;;;;5.35;1.02;;;28.00;99.90;;;;;;5017957;28;20025;-58
2022/09/06 10:31:28;;;;;;;1.30;0.90;;;28.20;99.90;;;;;;5001703;28;20460;-58
2022/09/06 10:34:11;;;;;;;2.17;1.08;;;28.30;99.90;;;;;;5022239;28;20041;-57
2022/09/06 10:36:58;;;;;;;2.83;0.90;;;28.50;99.90;;;;;;5019106;28;20125;-56
2022/09/06 10:39:47;;;;;;;2.10;1.17;;;28.60;99.90;;;;;;5029359;28;20029;-58
2022/09/06 10:42:18;;;;;;;2.45;1.00;;;28.90;99.90;;;;;;5019400;28;20430;-58
2022/09/06 10:44:56;;;;;;;2.88;1.00;;;29.10;99.90;;;;;;5020240;28;20025;-58
2022/09/06 10:47:37;;;;;;;5.47;1.58;;;29.30;99.90;;;;;;5027194;28;20434;-57
2022/09/06 10:50:04;;;;;;;1.50;1.08;;;29.20;99.90;;;;;;5032357;28;20037;-59
2022/09/06 10:52:43;;;;;;;1.70;1.10;;;29.40;99.90;;;;;;5021369;28;20029;-57
2022/09/06 10:55:13;;;;;;;2.75;1.20;;;29.50;99.90;;;;;;5019318;28;20041;-57
2022/09/06 10:57:50;;;;;;;4.30;1.05;;;29.60;99.90;;;;;;5021227;28;20034;-57
2022/09/06 11:00:17;;;;;;;2.58;0.93;;;29.90;99.90;;;;;;5017651;28;20013;-59
2022/09/06 11:03:00;;;;;;;3.13;1.13;;;29.70;99.90;;;;;;5024511;28;20026;-59
2022/09/06 11:05:39;;;;;;;6.32;1.10;;;29.90;99.90;;;;;;5024565;28;20029;-56
2022/09/06 11:08:14;;;;;;;3.83;0.95;;;30.10;99.80;;;;;;5017478;28;20030;-56
2022/09/06 11:10:44;;;;;;;3.10;1.15;;;30.10;99.50;;;;;;5018456;28;20394;-55
2022/09/06 11:13:17;;;;;;;3.70;1.10;;;30.00;99.60;;;;;;5019276;28;20108;-58
2022/09/06 11:16:04;;;;;;;4.93;0.85;;;30.00;99.80;;;;;;5012352;28;20400;-57
2022/09/06 11:18:58;;;;;;;3.63;1.20;;;30.00;98.40;;;;;;5018875;28;20155;-58
2022/09/06 11:21:51;;;;;;;2.30;1.08;;;30.00;98.70;;;;;;5025914;28;20084;-57
2022/09/06 11:24:34;;;;;;;1.48;1.00;;;30.10;99.80;;;;;;5012312;28;20113;-58
2022/09/06 11:27:10;;;;;;;6.63;1.08;;;30.40;98.60;;;;;;5014869;28;20029;-58
2022/09/06 11:29:41;;;;;;;7.15;1.77;;;30.60;99.20;;;;;;5018444;28;20025;-57
2022/09/06 11:32:34;;;;;;;4.43;0.93;;;30.90;97.00;;;;;;5019293;28;20480;-57
2022/09/06 11:35:02;;;;;;;1.35;1.17;;;31.00;97.70;;;;;;5020017;28;20025;-58
2022/09/06 11:37:41;;;;;;;2.88;0.85;;;31.20;95.60;;;;;;5029751;28;20033;-56
2022/09/06 11:40:21;;;;;;;5.90;1.15;;;31.10;95.50;;;;;;5015605;28;20050;-57
2022/09/06 11:42:47;;;;;;;3.38;1.00;;;31.10;94.80;;;;;;5017011;28;20029;-57
2022/09/06 11:45:20;;;;;;;6.93;1.13;;;31.10;95.30;;;;;;5019053;28;20048;-57
2022/09/06 11:47:50;;;;;;;2.38;1.20;;;31.20;95.60;;;;;;5018809;28;20034;-59
2022/09/06 11:50:19;;;;;;;3.30;1.23;;;31.40;94.90;;;;;;5015536;28;20112;-57
2022/09/06 11:52:53;;;;;;;2.20;0.90;;;31.10;93.40;;;;;;5018962;28;20030;-58
2022/09/06 11:57:55;;;;;;;2.05;1.08;;;31.20;92.50;;;;;;5104567;22;20047;-59
2022/09/06 12:00:23;;;;;;;3.72;0.98;;;31.20;92.90;;;;;;5087283;28;20019;-59
2022/09/06 12:02:49;;;;;;;1.25;1.10;;;31.30;93.20;;;;;;5088069;28;20119;-59
2022/09/06 12:05:20;;;;;;;5.20;1.08;;;31.40;92.40;;;;;;5088586;28;20031;-58
2022/09/06 12:08:09;;;;;;;1.17;0.88;;;31.30;93.40;;;;;;5073458;28;20028;-59
2022/09/06 12:10:48;;;;;;;6.63;1.35;;;31.20;92.60;;;;;;5056623;28;20041;-59
2022/09/06 12:13:32;;;;;;;3.35;1.75;;;30.50;93.40;;;;;;5069119;28;20020;-59
2022/09/06 12:15:58;;;;;;;2.93;1.37;;;30.10;95.50;;;;;;5072217;28;20021;-59
2022/09/06 12:18:41;;;;;;;5.25;1.60;;;29.70;96.10;;;;;;5072863;28;20317;-59
2022/09/06 12:21:30;;;;;;;2.38;0.90;;;29.30;96.90;;;;;;5069148;28;20060;-59
2022/09/06 12:23:55;;;;;;;6.93;1.38;;;29.50;96.50;;;;;;5072700;28;20025;-57
2022/09/06 12:26:47;;;;;;;3.17;1.20;;;30.20;94.80;;;;;;5070576;28;20024;-59
2022/09/06 12:29:13;;;;;;;2.45;1.58;;;30.90;94.50;;;;;;5074283;28;20029;-58
2022/09/06 12:31:42;;;;;;;3.92;1.20;;;31.50;93.90;;;;;;5069257;28;20470;-58
2022/09/06 12:34:17;;;;;;;4.88;1.00;;;31.60;91.20;;;;;;5068552;28;20107;-57
2022/09/06 12:36:56;;;;;;;2.83;1.00;;;31.80;92.20;;;;;;5068083;28;20048;-59
2022/09/06 12:39:23;;;;;;;5.25;1.30;;;32.00;91.40;;;;;;5062070;28;20029;-58
2022/09/06 12:41:54;;;;;;;1.25;1.00;;;32.20;92.40;;;;;;5063527;28;20028;-59
2022/09/06 12:44:29;;;;;;;4.57;1.15;;;32.50;92.90;;;;;;5065952;28;20031;-59
2022/09/06 12:47:00;;;;;;;5.88;1.15;;;32.70;92.90;;;;;;5074295;28;20078;-59
2022/09/06 12:49:26;;;;;;;2.00;1.00;;;33.10;88.60;;;;;;5070337;28;20040;-57
2022/09/06 12:52:05;;;;;;;1.95;1.20;;;33.00;88.80;;;;;;5068524;28;20024;-57
2022/09/06 12:54:31;;;;;;;2.55;1.10;;;33.00;85.80;;;;;;5071524;28;20039;-59
2022/09/06 12:57:12;;;;;;;6.55;1.05;;;33.10;86.60;;;;;;5071896;28;20039;-58
2022/09/06 12:59:46;;;;;;;3.25;1.10;;;33.10;84.80;;;;;;5072692;28;20025;-59
2022/09/06 13:02:19;;;;;;;2.33;1.08;;;32.90;82.10;;;;;;5075261;28;20107;-59